createdAt,value
2022-08-30T00:01:14.068Z,5.20
2022-08-30T00:03:47.246Z,4.35
2022-08-30T00:06:17.159Z,4.68
2022-08-30T00:08:44.613Z,3.97
2022-08-30T00:11:17.118Z,3.92
2022-08-30T00:13:46.547Z,5.32
2022-08-30T00:16:13.868Z,4.47
2022-08-30T00:18:41.366Z,4.57
2022-08-30T00:21:10.402Z,4.90
2022-08-30T00:23:38.415Z,4.93
2022-08-30T00:26:06.234Z,4.35
2022-08-30T00:28:34.146Z,4.75
2022-08-30T00:31:02.334Z,3.90
2022-08-30T00:33:30.213Z,4.82
2022-08-30T00:35:57.616Z,4.72
2022-08-30T00:38:24.585Z,4.10
2022-08-30T00:40:52.778Z,4.60
2022-08-30T00:43:30.002Z,5.45
2022-08-30T00:45:57.467Z,4.57
2022-08-30T00:48:24.446Z,3.92
2022-08-30T00:51:00.986Z,3.95
2022-08-30T00:53:36.728Z,4.63
2022-08-30T00:56:05.880Z,4.65
2022-08-30T00:58:38.444Z,4.38
2022-08-30T01:01:07.335Z,3.90
2022-08-30T01:03:34.761Z,4.13
2022-08-30T01:06:03.638Z,4.40
2022-08-30T01:08:30.917Z,5.05
2022-08-30T01:10:58.855Z,4.20
2022-08-30T01:13:27.158Z,4.25
2022-08-30T01:15:55.037Z,4.60
2022-08-30T01:18:24.100Z,4.85
2022-08-30T01:21:08.621Z,4.97
2022-08-30T01:23:39.424Z,4.20
2022-08-30T01:26:07.552Z,4.55
2022-08-30T01:28:34.837Z,4.80
2022-08-30T01:31:01.954Z,4.47
2022-08-30T01:33:29.591Z,4.88
2022-08-30T01:36:05.016Z,5.05
2022-08-30T01:38:44.827Z,4.57
2022-08-30T01:41:17.265Z,4.47
2022-08-30T01:43:44.805Z,5.25
2022-08-30T01:46:12.781Z,4.15
2022-08-30T01:48:42.135Z,5.22
2022-08-30T01:51:17.656Z,5.18
2022-08-30T01:53:45.798Z,4.45
2022-08-30T01:56:14.648Z,5.05
2022-08-30T01:58:42.168Z,4.82
2022-08-30T02:01:17.477Z,4.50
2022-08-30T02:03:45.319Z,4.55
2022-08-30T02:06:18.021Z,4.35
2022-08-30T02:08:45.656Z,4.03
2022-08-30T02:11:13.744Z,4.18
2022-08-30T02:13:43.163Z,4.75
2022-08-30T02:16:15.730Z,4.95
2022-08-30T02:18:42.762Z,4.65
2022-08-30T02:21:09.815Z,5.85
2022-08-30T02:23:37.281Z,4.43
2022-08-30T02:26:05.904Z,4.70
2022-08-30T02:28:32.820Z,5.15
2022-08-30T02:31:00.493Z,4.55
2022-08-30T02:33:27.645Z,5.18
2022-08-30T02:35:54.700Z,4.65
2022-08-30T02:38:21.794Z,4.82
2022-08-30T02:40:49.084Z,4.80
2022-08-30T02:43:16.416Z,5.07
2022-08-30T02:45:43.386Z,4.57
2022-08-30T02:48:10.679Z,4.55
2022-08-30T02:50:43.761Z,4.75
2022-08-30T02:55:42.992Z,4.07
2022-08-30T02:58:11.090Z,4.68
2022-08-30T03:00:39.181Z,4.68
2022-08-30T03:03:07.590Z,5.18
2022-08-30T03:05:35.173Z,3.83
2022-08-30T03:08:04.905Z,4.45
2022-08-30T03:10:31.958Z,4.28
2022-08-30T03:12:58.738Z,4.50
2022-08-30T03:15:25.973Z,4.85
2022-08-30T03:17:55.277Z,4.38
2022-08-30T03:20:23.694Z,6.00
2022-08-30T03:22:50.818Z,4.50
2022-08-30T03:25:17.925Z,5.03
2022-08-30T03:27:44.718Z,4.65
2022-08-30T03:30:12.364Z,4.15
2022-08-30T03:32:40.664Z,5.80
2022-08-30T03:35:10.195Z,4.30
2022-08-30T03:37:37.209Z,5.05
2022-08-30T03:40:07.629Z,4.97
2022-08-30T03:42:35.686Z,4.78
2022-08-30T03:45:03.462Z,4.78
2022-08-30T03:47:30.221Z,5.13
2022-08-30T03:49:57.697Z,5.30
2022-08-30T03:52:24.522Z,5.03
2022-08-30T03:54:51.338Z,4.47
2022-08-30T03:57:20.177Z,5.68
2022-08-30T03:59:47.203Z,6.18
2022-08-30T04:02:14.165Z,4.50
2022-08-30T04:04:41.045Z,5.22
2022-08-30T04:07:07.875Z,6.05
2022-08-30T04:09:34.657Z,5.32
2022-08-30T04:12:01.500Z,5.53
2022-08-30T04:14:28.375Z,4.60
2022-08-30T04:16:55.177Z,4.70
2022-08-30T04:19:22.070Z,4.25
2022-08-30T04:21:48.850Z,4.80
2022-08-30T04:24:16.237Z,4.07
2022-08-30T04:26:43.149Z,4.70
2022-08-30T04:29:12.332Z,5.50
2022-08-30T04:31:39.190Z,4.43
2022-08-30T04:34:06.110Z,4.50
2022-08-30T04:36:33.009Z,5.05
2022-08-30T04:38:59.832Z,5.13
2022-08-30T04:41:26.597Z,5.68
2022-08-30T04:43:53.448Z,5.43
2022-08-30T04:46:20.532Z,5.03
2022-08-30T04:48:47.664Z,4.47
2022-08-30T04:51:17.572Z,5.20
2022-08-30T04:53:45.746Z,5.03
2022-08-30T04:56:22.444Z,4.82
2022-08-30T04:58:53.736Z,4.68
2022-08-30T05:01:26.855Z,4.65
2022-08-30T05:03:56.143Z,5.40
2022-08-30T05:06:24.721Z,5.07
2022-08-30T05:08:52.938Z,5.85
2022-08-30T05:11:20.690Z,5.40
2022-08-30T05:13:47.986Z,4.43
2022-08-30T05:16:18.035Z,4.75
2022-08-30T05:18:47.181Z,4.88
2022-08-30T05:21:21.978Z,5.28
2022-08-30T05:23:50.539Z,5.35
2022-08-30T05:26:28.676Z,4.63
2022-08-30T05:28:56.427Z,5.10
2022-08-30T05:31:34.823Z,5.85
2022-08-30T05:34:02.185Z,5.03
2022-08-30T05:36:31.992Z,5.00
2022-08-30T05:39:00.591Z,5.82
2022-08-30T05:41:28.645Z,5.40
2022-08-30T05:43:59.025Z,4.97
2022-08-30T05:46:29.700Z,6.40
2022-08-30T05:48:57.508Z,4.85
2022-08-30T05:51:28.810Z,5.07
2022-08-30T05:53:58.171Z,5.68
2022-08-30T05:56:31.104Z,4.80
2022-08-30T05:58:59.457Z,4.72
2022-08-30T06:01:33.685Z,5.45
2022-08-30T06:04:04.304Z,5.47
2022-08-30T06:06:35.231Z,5.78
2022-08-30T06:09:05.024Z,5.03
2022-08-30T06:11:33.886Z,4.60
2022-08-30T06:14:01.622Z,4.78
2022-08-30T06:16:29.136Z,5.38
2022-08-30T06:18:58.849Z,5.18
2022-08-30T06:21:32.378Z,5.25
2022-08-30T06:23:59.301Z,4.93
2022-08-30T06:26:28.405Z,4.57
2022-08-30T06:28:57.199Z,5.85
2022-08-30T06:31:26.605Z,5.88
2022-08-30T06:33:54.134Z,6.57
2022-08-30T06:36:25.094Z,5.60
2022-08-30T06:38:58.843Z,5.30
2022-08-30T06:41:29.246Z,5.95
2022-08-30T06:43:58.197Z,6.05
2022-08-30T06:46:32.782Z,6.05
2022-08-30T06:49:00.761Z,6.40
2022-08-30T06:51:36.044Z,6.03
2022-08-30T06:54:04.453Z,5.65
2022-08-30T06:56:32.482Z,6.28
2022-08-30T06:59:00.031Z,5.68
2022-08-30T07:01:28.952Z,5.57
2022-08-30T07:03:57.028Z,6.57
2022-08-30T07:06:25.787Z,5.75
2022-08-30T07:08:56.338Z,6.32
2022-08-30T07:11:32.149Z,6.75
2022-08-30T07:13:59.942Z,5.40
2022-08-30T07:16:27.990Z,5.80
2022-08-30T07:18:55.837Z,6.00
2022-08-30T07:21:43.896Z,5.63
2022-08-30T07:24:12.912Z,6.00
2022-08-30T07:26:46.542Z,6.15
2022-08-30T07:29:13.545Z,5.60
2022-08-30T07:31:40.598Z,5.47
2022-08-30T07:34:08.322Z,6.10
2022-08-30T07:36:37.582Z,6.03
2022-08-30T07:39:06.259Z,5.22
2022-08-30T07:41:38.925Z,5.60
2022-08-30T07:44:08.748Z,6.65
2022-08-30T07:46:37.513Z,5.00
2022-08-30T07:49:11.273Z,4.47
2022-08-30T07:51:40.607Z,5.75
2022-08-30T07:54:07.638Z,5.10
2022-08-30T07:56:35.273Z,4.72
2022-08-30T07:59:02.059Z,4.55
2022-08-30T08:01:28.959Z,5.40
2022-08-30T08:03:55.742Z,5.57
2022-08-30T08:06:24.038Z,5.28
2022-08-30T08:08:51.685Z,5.72
2022-08-30T08:11:26.833Z,5.03
2022-08-30T08:13:56.181Z,4.85
2022-08-30T08:16:26.185Z,4.97
2022-08-30T08:18:54.271Z,5.38
2022-08-30T08:21:22.698Z,4.47
2022-08-30T08:23:50.173Z,5.88
2022-08-30T08:26:17.550Z,5.15
2022-08-30T08:28:45.172Z,5.03
2022-08-30T08:31:27.333Z,5.35
2022-08-30T08:34:06.086Z,4.10
2022-08-30T08:36:36.144Z,4.53
2022-08-30T08:39:05.576Z,4.47
2022-08-30T08:42:00.967Z,4.28
2022-08-30T08:44:34.443Z,4.00
2022-08-30T08:47:24.329Z,4.25
2022-08-30T08:49:55.857Z,4.80
2022-08-30T08:52:59.894Z,4.03
2022-08-30T08:55:29.845Z,4.18
2022-08-30T08:57:57.762Z,3.60
2022-08-30T09:00:25.123Z,3.75
2022-08-30T09:03:01.690Z,4.30
2022-08-30T09:05:41.134Z,4.40
2022-08-30T09:08:14.166Z,3.80
2022-08-30T09:10:51.416Z,4.38
2022-08-30T09:13:22.729Z,3.78
2022-08-30T09:15:54.637Z,3.75
2022-08-30T09:18:47.468Z,3.90
2022-08-30T09:21:26.108Z,3.40
2022-08-30T09:24:15.784Z,3.15
2022-08-30T09:26:47.533Z,3.20
2022-08-30T09:29:20.238Z,3.45
2022-08-30T09:32:10.193Z,3.90
2022-08-30T09:34:43.821Z,3.08
2022-08-30T09:37:54.358Z,3.67
2022-08-30T09:40:41.423Z,2.92
2022-08-30T09:43:21.960Z,2.75
2022-08-30T09:46:10.289Z,2.75
2022-08-30T09:48:46.081Z,2.97
2022-08-30T09:51:13.375Z,2.38
2022-08-30T09:54:07.245Z,2.40
2022-08-30T09:57:15.938Z,2.60
2022-08-30T09:59:57.530Z,3.20
2022-08-30T10:03:05.141Z,2.42
2022-08-30T10:06:10.950Z,2.15
2022-08-30T10:09:02.054Z,2.70
2022-08-30T10:11:43.898Z,2.53
2022-08-30T10:14:39.210Z,2.63
2022-08-30T10:17:06.009Z,2.65
2022-08-30T10:20:04.022Z,3.10
2022-08-30T10:22:47.421Z,2.80
2022-08-30T10:25:32.447Z,3.30
2022-08-30T10:28:10.422Z,3.38
2022-08-30T10:30:42.784Z,3.22
2022-08-30T10:33:39.878Z,3.92
2022-08-30T10:36:12.979Z,3.95
2022-08-30T10:38:50.221Z,2.88
2022-08-30T10:41:36.972Z,3.10
2022-08-30T10:44:20.832Z,2.95
2022-08-30T10:47:45.043Z,3.17
2022-08-30T10:50:28.577Z,2.67
2022-08-30T10:53:04.021Z,3.30
2022-08-30T10:55:36.871Z,3.47
2022-08-30T10:58:06.556Z,2.88
2022-08-30T11:01:07.705Z,4.28
2022-08-30T11:03:39.860Z,3.30
2022-08-30T11:06:23.069Z,3.45
2022-08-30T11:12:26.361Z,3.30
2022-08-30T11:14:54.300Z,2.85
2022-08-30T11:18:01.576Z,3.85
2022-08-30T11:20:39.932Z,4.00
2022-08-30T11:23:24.413Z,4.05
2022-08-30T11:26:16.877Z,4.22
2022-08-30T11:28:47.475Z,3.72
2022-08-30T11:31:23.732Z,3.63
2022-08-30T11:34:00.969Z,3.05
2022-08-30T11:39:48.953Z,3.72
2022-08-30T11:42:53.721Z,3.10
2022-08-30T11:45:25.197Z,3.60
2022-08-30T11:47:55.297Z,5.13
2022-08-30T11:50:53.690Z,3.75
2022-08-30T11:53:47.190Z,4.22
2022-08-30T11:56:54.454Z,4.38
2022-08-30T11:59:42.782Z,4.00
2022-08-30T12:02:09.754Z,3.47
2022-08-30T12:04:46.655Z,5.05
2022-08-30T12:07:57.186Z,4.03
2022-08-30T12:10:43.454Z,3.53
2022-08-30T12:13:40.063Z,3.47
2022-08-30T12:16:27.716Z,3.75
2022-08-30T12:19:09.893Z,4.07
2022-08-30T12:21:44.964Z,3.40
2022-08-30T12:24:25.660Z,3.67
2022-08-30T12:26:53.728Z,3.30
2022-08-30T12:29:28.000Z,3.28
2022-08-30T12:31:58.621Z,3.72
2022-08-30T12:34:31.771Z,3.55
2022-08-30T12:37:08.518Z,3.03
2022-08-30T12:39:42.730Z,2.58
2022-08-30T12:42:17.578Z,3.58
2022-08-30T12:44:46.062Z,3.10
2022-08-30T12:47:20.438Z,3.10
2022-08-30T12:49:48.994Z,3.03
2022-08-30T12:52:29.543Z,2.92
2022-08-30T12:55:17.336Z,2.83
2022-08-30T12:58:10.187Z,2.70
2022-08-30T13:00:40.818Z,2.40
2022-08-30T13:03:36.867Z,2.63
2022-08-30T13:06:07.533Z,2.67
2022-08-30T13:08:51.714Z,2.95
2022-08-30T13:11:21.090Z,2.95
2022-08-30T13:13:58.445Z,2.65
2022-08-30T13:16:42.255Z,2.67
2022-08-30T13:19:36.753Z,3.13
2022-08-30T13:22:05.472Z,2.95
2022-08-30T13:24:32.292Z,3.05
2022-08-30T13:27:06.721Z,2.65
2022-08-30T13:29:33.606Z,3.20
2022-08-30T13:32:00.447Z,4.15
2022-08-30T13:34:27.382Z,3.03
2022-08-30T13:36:58.820Z,2.97
2022-08-30T13:39:26.500Z,3.03
2022-08-30T13:41:53.728Z,2.97
2022-08-30T13:44:21.390Z,2.63
2022-08-30T13:46:55.325Z,3.15
2022-08-30T13:49:43.451Z,3.13
2022-08-30T13:52:21.803Z,2.42
2022-08-30T13:54:54.704Z,3.33
2022-08-30T14:00:19.406Z,3.17
2022-08-30T14:02:54.597Z,2.60
2022-08-30T14:11:02.276Z,2.85
2022-08-30T14:13:29.604Z,3.70
2022-08-30T14:18:47.687Z,3.22
2022-08-30T14:21:15.908Z,2.95
2022-08-30T14:23:42.816Z,3.05
2022-08-30T14:26:18.731Z,3.35
2022-08-30T14:28:46.168Z,3.20
2022-08-30T14:31:19.734Z,2.45
2022-08-30T14:33:47.213Z,3.13
2022-08-30T14:36:15.727Z,2.97
2022-08-30T14:38:43.931Z,3.05
2022-08-30T14:41:11.655Z,3.60
2022-08-30T14:43:40.706Z,2.90
2022-08-30T14:46:09.129Z,3.17
2022-08-30T14:48:38.440Z,3.38
2022-08-30T14:51:18.406Z,3.88
2022-08-30T14:53:46.622Z,3.50
2022-08-30T14:56:19.796Z,3.35
2022-08-30T14:58:50.260Z,3.28
2022-08-30T15:01:18.794Z,2.65
2022-08-30T15:03:47.121Z,3.20
2022-08-30T15:06:14.043Z,3.50
2022-08-30T15:08:41.354Z,3.15
2022-08-30T15:11:14.029Z,3.28
2022-08-30T15:13:42.525Z,3.33
2022-08-30T15:16:17.941Z,3.42
2022-08-30T15:18:44.905Z,2.88
2022-08-30T15:21:11.770Z,3.22
2022-08-30T15:23:40.525Z,3.28
2022-08-30T15:26:09.476Z,3.85
2022-08-30T15:28:36.957Z,3.35
2022-08-30T15:31:08.547Z,3.20
2022-08-30T15:33:36.454Z,3.45
2022-08-30T15:36:05.024Z,3.35
2022-08-30T15:38:32.775Z,3.30
2022-08-30T15:41:05.244Z,3.50
2022-08-30T15:43:32.137Z,4.15
2022-08-30T15:46:30.093Z,3.80
2022-08-30T15:49:01.711Z,4.15
2022-08-30T15:51:30.684Z,3.65
2022-08-30T15:53:58.057Z,4.07
2022-08-30T15:56:25.040Z,4.15
2022-08-30T15:58:53.136Z,3.30
2022-08-30T16:01:20.332Z,3.25
2022-08-30T16:03:57.473Z,3.75
2022-08-30T16:06:28.414Z,3.60
2022-08-30T16:08:55.851Z,3.78
2022-08-30T16:11:24.840Z,3.85
2022-08-30T16:13:57.564Z,3.72
2022-08-30T16:16:24.730Z,2.83
2022-08-30T16:18:53.701Z,3.17
2022-08-30T16:21:27.738Z,3.92
2022-08-30T16:23:57.727Z,3.85
2022-08-30T16:26:27.929Z,3.28
2022-08-30T16:28:55.734Z,3.75
2022-08-30T16:31:24.274Z,3.92
2022-08-30T16:33:53.274Z,3.70
2022-08-30T16:36:22.978Z,3.72
2022-08-30T16:38:53.574Z,3.53
2022-08-30T16:41:24.484Z,3.28
2022-08-30T16:43:53.201Z,3.67
2022-08-30T16:46:23.373Z,2.92
2022-08-30T16:49:01.646Z,3.60
2022-08-30T16:51:31.466Z,3.65
2022-08-30T16:54:01.802Z,3.40
2022-08-30T16:56:30.822Z,3.40
2022-08-30T16:59:02.559Z,3.72
2022-08-30T17:01:33.325Z,3.55
2022-08-30T17:04:02.378Z,3.30
2022-08-30T17:06:29.286Z,3.60
2022-08-30T17:08:57.013Z,3.15
2022-08-30T17:11:25.212Z,3.70
2022-08-30T17:13:52.805Z,3.85
2022-08-30T17:16:22.582Z,3.28
2022-08-30T17:18:59.989Z,3.88
2022-08-30T17:24:01.430Z,3.42
2022-08-30T17:26:46.154Z,3.33
2022-08-30T17:29:12.969Z,3.63
2022-08-30T17:31:46.362Z,4.28
2022-08-30T17:34:18.038Z,3.50
2022-08-30T17:36:44.946Z,3.05
2022-08-30T17:39:13.066Z,4.15
2022-08-30T17:41:48.255Z,3.30
2022-08-30T17:44:25.887Z,4.10
2022-08-30T17:46:53.781Z,3.60
2022-08-30T17:49:21.401Z,3.00
2022-08-30T17:51:54.200Z,3.47
2022-08-30T17:54:24.482Z,3.47
2022-08-30T17:56:52.965Z,3.70
2022-08-30T17:59:24.839Z,3.40
2022-08-30T18:01:54.760Z,3.53
2022-08-30T18:04:22.330Z,3.80
2022-08-30T18:06:52.382Z,3.45
2022-08-30T18:09:19.212Z,3.97
2022-08-30T18:11:48.278Z,3.72
2022-08-30T18:14:16.413Z,3.65
2022-08-30T18:16:50.216Z,4.03
2022-08-30T18:19:21.693Z,3.95
2022-08-30T18:21:48.650Z,4.18
2022-08-30T18:24:16.794Z,3.38
2022-08-30T18:26:43.813Z,3.72
2022-08-30T18:29:11.039Z,4.35
2022-08-30T18:31:38.349Z,4.03
2022-08-30T18:34:07.051Z,3.78
2022-08-30T18:36:40.715Z,4.15
2022-08-30T18:39:08.573Z,3.67
2022-08-30T18:41:43.049Z,4.03
2022-08-30T18:44:26.738Z,4.10
2022-08-30T18:46:56.066Z,3.53
2022-08-30T18:49:27.006Z,4.22
2022-08-30T18:51:54.548Z,4.40
2022-08-30T18:54:21.594Z,4.47
2022-08-30T18:56:49.658Z,4.80
2022-08-30T18:59:17.419Z,4.68
2022-08-30T19:01:47.171Z,4.10
2022-08-30T19:04:22.479Z,4.20
2022-08-30T19:06:57.269Z,4.18
2022-08-30T19:09:24.083Z,4.03
2022-08-30T19:11:53.917Z,4.30
2022-08-30T19:14:20.715Z,4.40
2022-08-30T19:16:48.212Z,3.80
2022-08-30T19:19:15.662Z,4.43
2022-08-30T19:21:42.458Z,4.10
2022-08-30T19:24:09.898Z,4.20
2022-08-30T19:26:38.457Z,5.03
2022-08-30T19:29:06.767Z,4.07
2022-08-30T19:31:34.154Z,4.25
2022-08-30T19:34:01.061Z,4.18
2022-08-30T19:36:29.024Z,4.45
2022-08-30T19:38:56.025Z,4.95
2022-08-30T19:41:23.566Z,4.20
2022-08-30T19:43:51.462Z,3.90
2022-08-30T19:46:18.542Z,4.22
2022-08-30T19:48:45.613Z,4.40
2022-08-30T19:51:15.214Z,4.20
2022-08-30T19:53:58.657Z,4.80
2022-08-30T19:56:30.568Z,4.88
2022-08-30T19:58:57.428Z,5.97
2022-08-30T20:01:33.502Z,4.47
2022-08-30T20:04:02.268Z,4.47
2022-08-30T20:06:30.973Z,4.63
2022-08-30T20:09:00.405Z,4.28
2022-08-30T20:11:28.663Z,4.63
2022-08-30T20:13:55.773Z,4.40
2022-08-30T20:16:33.053Z,4.22
2022-08-30T20:19:06.621Z,4.53
2022-08-30T20:21:34.282Z,5.13
2022-08-30T20:24:02.921Z,4.07
2022-08-30T20:26:34.366Z,4.22
2022-08-30T20:29:03.560Z,4.70
2022-08-30T20:31:30.687Z,4.38
2022-08-30T20:33:57.814Z,4.97
2022-08-30T20:36:24.597Z,4.10
2022-08-30T20:38:51.673Z,3.95
2022-08-30T20:41:19.941Z,4.72
2022-08-30T20:43:48.866Z,4.22
2022-08-30T20:46:19.550Z,4.60
2022-08-30T20:48:47.823Z,4.53
2022-08-30T20:51:19.086Z,4.85
2022-08-30T20:53:46.133Z,4.13
2022-08-30T20:56:19.669Z,4.63
2022-08-30T20:58:46.519Z,4.85
2022-08-30T21:01:14.722Z,4.32
2022-08-30T21:03:43.946Z,4.53
2022-08-30T21:06:11.905Z,4.72
2022-08-30T21:08:39.949Z,4.25
2022-08-30T21:11:07.242Z,4.75
2022-08-30T21:13:34.057Z,4.45
2022-08-30T21:16:03.539Z,4.63
2022-08-30T21:18:34.151Z,4.05
2022-08-30T21:21:14.909Z,4.45
2022-08-30T21:23:42.910Z,4.20
2022-08-30T21:26:10.909Z,4.97
2022-08-30T21:28:38.952Z,4.32
2022-08-30T21:31:14.789Z,4.32
2022-08-30T21:33:42.058Z,5.10
2022-08-30T21:36:28.967Z,4.53
2022-08-30T21:39:00.904Z,3.63
2022-08-30T21:41:30.213Z,4.80
2022-08-30T21:44:00.024Z,4.60
2022-08-30T21:46:28.323Z,4.70
2022-08-30T21:48:58.115Z,4.32
2022-08-30T21:51:25.283Z,4.38
2022-08-30T21:53:52.057Z,5.18
2022-08-30T21:56:22.244Z,4.70
2022-08-30T21:58:49.885Z,4.40
2022-08-30T22:01:23.722Z,4.88
2022-08-30T22:03:53.319Z,4.10
2022-08-30T22:06:20.615Z,5.18
2022-08-30T22:08:48.961Z,4.93
2022-08-30T22:11:21.637Z,5.55
2022-08-30T22:13:50.639Z,4.97
2022-08-30T22:16:22.933Z,4.70
2022-08-30T22:18:50.632Z,4.45
2022-08-30T22:21:23.196Z,4.75
2022-08-30T22:23:50.593Z,4.95
2022-08-30T22:26:19.455Z,3.83
2022-08-30T22:28:46.360Z,4.70
2022-08-30T22:31:15.965Z,4.72
2022-08-30T22:33:43.598Z,4.20
2022-08-30T22:36:21.063Z,4.85
2022-08-30T22:38:48.958Z,4.95
2022-08-30T22:41:18.641Z,4.15
2022-08-30T22:43:48.875Z,5.25
2022-08-30T22:46:18.458Z,4.00
2022-08-30T22:48:56.135Z,5.20
2022-08-30T22:51:23.053Z,4.07
2022-08-30T22:53:50.323Z,4.07
2022-08-30T22:56:22.983Z,3.88
2022-08-30T22:58:50.029Z,4.25
2022-08-30T23:01:26.919Z,4.00
2022-08-30T23:03:54.294Z,5.47
2022-08-30T23:06:22.184Z,5.15
2022-08-30T23:08:49.460Z,4.10
2022-08-30T23:11:17.119Z,5.35
2022-08-30T23:13:44.801Z,4.05
2022-08-30T23:16:13.077Z,4.28
2022-08-30T23:18:42.573Z,4.85
2022-08-30T23:21:24.519Z,4.28
2022-08-30T23:24:11.572Z,4.15
2022-08-30T23:26:59.800Z,4.75
2022-08-30T23:29:46.476Z,4.55
2022-08-30T23:32:32.876Z,4.25
2022-08-30T23:35:18.151Z,5.13
2022-08-30T23:38:05.345Z,4.00
2022-08-30T23:40:50.865Z,4.78
2022-08-30T23:43:36.604Z,4.18
2022-08-30T23:46:22.132Z,4.38
2022-08-30T23:49:09.219Z,4.97
2022-08-30T23:51:56.911Z,4.20
2022-08-30T23:54:43.533Z,4.57
2022-08-30T23:57:28.778Z,4.18
